Hauptseite
METAR-TAF:

METAR-TAF

Flughäfen :

Flugplatz Locarno

Locarno, Schweiz

Breite: 46-09-55N, Länge: 8-52-40E, Höhe: 198 m

Beobachtung

Neuester Wetterbericht von vor 38 Minuten, um 10:50 UTC
Wind 5 kt aus West, variierte zwischen Südwest und West/Nordwest
Temperatur 27°C
Luftfeuchtigkeit 51%
Luftdruck 1013 hPa
Sichtweite 10 km oder mehr
Leicht bewölkt in der Höhe von 7000 ft

METAR: LSZL 191050Z 26005KT 230V300 9999 FEW070 27/16 Q1013 RMK BLU+

Zeit: 13:28 (11:28 UTC)

Prognose

Neuester Wetterbericht von vor 6 Stunden und 3 Minuten, um 05:25 UTC
Gültige Prognose vom 19 um 06 UTC bis 19 um 15 UTC
Wind 5 kt aus West
Sichtweite 10 km oder mehr
keine Wolken unter 1500 m und keine Kumulonimbus oder Gewitterwolken
Übergehend zu
vom 19 um 07 UTC bis 19 um 10 UTC
Sichtweite 10 km oder mehr
Leicht bewölkt in der Höhe von 5000 ft

TAF: LSZL 190525Z 1906/1915 28005KT CAVOK BECMG 1907/1910 9999 FEW050

Wetterbeobachtungen und Prognosen von mehr als 4000 Flughäfen (METAR und TAF Bericht).

Die verfügbaren Stationen werden durch gelbe und rote Markierungen auf der Karte dargestellt.

Führen Sie die Maus auf sie, um den Namen der Station zu sehen.

Darauf klicken, um die Beobachtung von Wetterbeobachtungen und Prognosen zu sehen.

Um die Karte zu ändern : klicken Sie auf den grünen Tasten mit einem schwarzen Kreuz Zum Vergrößern, auf den grünen Button mit einem Gedankenstrich zu verkleinern, oder auf die grünen Pfeile für benachbarte Karten.


METAR-TAF: